Time;durP1;ratioP1;P1;durP2;ratioP2;P2;SDS_P1;SDS_P2;PMS_P1;PMS_P2;Temp;Humidity;BMP_temperature;BMP_pressure;BME280_temperature;BME280_humidity;BME280_pressure;Samples;Min_cycle;Max_cycle;Signal;HPM_P1;HPM_P2
2024/03/22 00:01:57;;;;;;;59.27;28.30;;;13.50;99.90;;;;;;5068869;28;20632;-58
2024/03/22 00:04:24;;;;;;;57.27;27.13;;;13.40;99.90;;;;;;5071830;28;20208;-58
2024/03/22 00:06:50;;;;;;;292.47;35.13;;;13.30;99.90;;;;;;5087927;28;20220;-59
2024/03/22 00:09:17;;;;;;;86.07;32.03;;;13.20;99.90;;;;;;5069915;28;20197;-58
2024/03/22 00:11:44;;;;;;;35.47;22.77;;;13.20;99.90;;;;;;5072517;28;20202;-58
2024/03/22 00:14:11;;;;;;;49.73;21.33;;;13.10;99.90;;;;;;5071014;28;20590;-59
2024/03/22 00:16:37;;;;;;;28.83;20.63;;;13.00;99.90;;;;;;5071010;28;20630;-58
2024/03/22 00:19:04;;;;;;;32.63;21.43;;;12.90;99.90;;;;;;5078045;28;20685;-58
2024/03/22 00:21:30;;;;;;;71.70;26.80;;;12.80;99.90;;;;;;5072115;28;20190;-58
2024/03/22 00:23:57;;;;;;;32.63;23.43;;;12.70;99.80;;;;;;5073062;28;20204;-58
2024/03/22 00:26:24;;;;;;;31.27;23.20;;;12.60;99.90;;;;;;5073569;28;20219;-58
2024/03/22 00:28:50;;;;;;;32.57;24.80;;;12.60;99.90;;;;;;5073070;28;20193;-58
2024/03/22 00:31:16;;;;;;;26.27;19.87;;;12.60;99.90;;;;;;5070715;28;20681;-58
2024/03/22 00:33:42;;;;;;;23.00;18.67;;;12.50;99.90;;;;;;5072644;28;20217;-58
2024/03/22 00:36:08;;;;;;;30.37;19.13;;;12.50;99.90;;;;;;5072831;28;20205;-58
2024/03/22 00:38:35;;;;;;;36.03;22.03;;;12.50;99.90;;;;;;5073746;28;20211;-58
2024/03/22 00:41:01;;;;;;;20.63;16.60;;;12.50;99.90;;;;;;5073617;28;20552;-58
2024/03/22 00:43:27;;;;;;;48.73;19.17;;;12.50;99.80;;;;;;5076358;28;20206;-58
2024/03/22 00:45:53;;;;;;;47.93;19.60;;;12.40;99.70;;;;;;5072912;28;20210;-58
2024/03/22 00:48:19;;;;;;;204.83;22.20;;;12.30;99.70;;;;;;5073456;28;20212;-59
2024/03/22 00:50:46;;;;;;;22.83;18.93;;;12.30;99.70;;;;;;5072040;28;20197;-58
2024/03/22 00:53:12;;;;;;;48.07;20.17;;;12.20;99.60;;;;;;5073297;28;20204;-58
2024/03/22 00:55:38;;;;;;;58.33;19.10;;;12.10;99.60;;;;;;5089536;28;20204;-58
2024/03/22 00:58:04;;;;;;;50.83;18.83;;;12.10;99.70;;;;;;5072913;28;20186;-58
2024/03/22 01:00:30;;;;;;;15.13;13.27;;;12.10;99.80;;;;;;5071555;28;20554;-58
2024/03/22 01:02:57;;;;;;;36.10;14.40;;;12.00;99.80;;;;;;5072474;28;20212;-58
2024/03/22 01:05:23;;;;;;;15.07;13.03;;;12.00;99.70;;;;;;5072389;28;20209;-58
2024/03/22 01:07:49;;;;;;;16.27;14.03;;;11.90;99.50;;;;;;5069562;28;20194;-58
2024/03/22 01:10:15;;;;;;;16.83;14.73;;;11.90;99.30;;;;;;5071831;28;20634;-58
2024/03/22 01:12:41;;;;;;;16.23;14.37;;;11.80;99.20;;;;;;5071255;28;20201;-58
2024/03/22 01:15:09;;;;;;;16.00;14.40;;;11.80;99.20;;;;;;5071738;28;20216;-58
2024/03/22 01:17:35;;;;;;;16.20;14.50;;;11.80;99.30;;;;;;5068918;28;20243;-58
2024/03/22 01:20:02;;;;;;;17.20;15.40;;;11.70;99.30;;;;;;5072703;28;20202;-58
2024/03/22 01:22:28;;;;;;;17.90;15.87;;;11.70;99.40;;;;;;5072299;28;20204;-58
2024/03/22 01:24:54;;;;;;;15.67;13.07;;;11.70;99.50;;;;;;5071722;28;20220;-58
2024/03/22 01:27:20;;;;;;;17.43;14.20;;;11.60;99.40;;;;;;5072038;28;20213;-59
2024/03/22 01:29:47;;;;;;;30.57;15.50;;;11.60;99.30;;;;;;5070235;28;20560;-58
2024/03/22 01:32:13;;;;;;;15.00;13.37;;;11.60;99.30;;;;;;5077974;28;20197;-58
2024/03/22 01:34:39;;;;;;;15.67;13.60;;;11.50;99.20;;;;;;5070554;28;20505;-58
2024/03/22 01:37:06;;;;;;;36.93;16.57;;;11.50;99.20;;;;;;5068407;28;20212;-58
2024/03/22 01:39:32;;;;;;;22.00;16.23;;;11.50;99.10;;;;;;5061534;28;20221;-58
2024/03/22 01:41:58;;;;;;;17.33;14.87;;;11.40;99.00;;;;;;5065308;28;20210;-58
2024/03/22 01:44:28;;;;;;;16.20;13.57;;;11.40;99.10;;;;;;5070822;28;20206;-58
2024/03/22 01:46:55;;;;;;;15.40;13.23;;;11.40;99.10;;;;;;5065612;28;20377;-58
2024/03/22 01:49:22;;;;;;;17.17;14.77;;;11.40;99.20;;;;;;5070443;28;20201;-58
2024/03/22 01:51:48;;;;;;;81.77;17.73;;;11.30;99.20;;;;;;5069540;28;20225;-58
2024/03/22 01:54:16;;;;;;;41.10;17.53;;;11.30;99.20;;;;;;5068719;28;20198;-58
2024/03/22 01:56:42;;;;;;;58.10;19.63;;;11.30;99.40;;;;;;5069282;28;20241;-58
2024/03/22 01:59:09;;;;;;;58.43;20.17;;;11.30;99.50;;;;;;5071778;28;20277;-58
2024/03/22 02:01:36;;;;;;;77.87;18.07;;;11.40;99.80;;;;;;5071159;28;20240;-58
2024/03/22 02:04:02;;;;;;;79.43;19.97;;;11.40;99.90;;;;;;5072092;28;20210;-58
2024/03/22 02:06:28;;;;;;;86.93;16.83;;;11.40;99.90;;;;;;5071832;28;20638;-58
2024/03/22 02:08:55;;;;;;;61.37;17.80;;;11.40;99.90;;;;;;5071872;28;20658;-58
2024/03/22 02:11:21;;;;;;;39.37;17.13;;;11.40;99.90;;;;;;5069730;28;20509;-58
2024/03/22 02:13:47;;;;;;;58.30;15.57;;;11.30;99.90;;;;;;5066281;28;20668;-58
2024/03/22 02:16:13;;;;;;;50.30;15.80;;;11.30;99.90;;;;;;5071081;28;20261;-58
2024/03/22 02:18:39;;;;;;;53.23;15.93;;;11.20;99.90;;;;;;5070114;28;20197;-58
2024/03/22 02:21:06;;;;;;;55.83;16.03;;;11.20;99.90;;;;;;5053158;28;20200;-58
2024/03/22 02:23:36;;;;;;;74.70;15.90;;;11.20;99.90;;;;;;5067723;28;20198;-58
2024/03/22 02:26:03;;;;;;;109.20;17.47;;;11.10;99.90;;;;;;5068086;28;20217;-59
2024/03/22 02:28:30;;;;;;;56.03;16.70;;;11.10;99.90;;;;;;5068306;28;20654;-58
2024/03/22 02:30:56;;;;;;;67.17;16.43;;;11.00;99.90;;;;;;5068782;28;20511;-58
2024/03/22 02:33:22;;;;;;;87.87;15.37;;;11.00;99.90;;;;;;5069111;28;20610;-58
2024/03/22 02:35:49;;;;;;;54.97;13.70;;;11.00;99.90;;;;;;5070557;28;20205;-58
2024/03/22 02:38:16;;;;;;;55.50;15.00;;;10.90;99.80;;;;;;5068812;28;20240;-58
2024/03/22 02:40:46;;;;;;;44.60;12.97;;;10.80;99.80;;;;;;5070163;28;20216;-58
2024/03/22 02:43:13;;;;;;;28.33;14.40;;;10.80;99.80;;;;;;5070930;28;20635;-58
2024/03/22 02:45:39;;;;;;;15.23;13.63;;;10.70;99.80;;;;;;5064332;28;20236;-58
2024/03/22 02:48:06;;;;;;;24.10;13.10;;;10.70;99.70;;;;;;5067479;28;20198;-58
2024/03/22 02:50:37;;;;;;;15.67;12.50;;;10.60;99.80;;;;;;5068419;28;20206;-58
2024/03/22 02:53:04;;;;;;;17.30;13.77;;;10.60;99.80;;;;;;5070723;28;20197;-59
2024/03/22 02:55:36;;;;;;;14.70;12.43;;;10.60;99.80;;;;;;5070735;28;20204;-59
2024/03/22 02:58:03;;;;;;;13.00;11.67;;;10.50;99.80;;;;;;5070789;28;20203;-58
2024/03/22 03:00:29;;;;;;;43.60;13.90;;;10.50;99.80;;;;;;5070617;28;20251;-58
2024/03/22 03:02:55;;;;;;;28.97;13.33;;;10.50;99.80;;;;;;5050647;28;20205;-59
2024/03/22 03:05:23;;;;;;;14.47;12.73;;;10.40;99.90;;;;;;5067346;28;20259;-58
2024/03/22 03:07:50;;;;;;;14.20;12.70;;;10.40;99.80;;;;;;5071150;28;20220;-58
2024/03/22 03:10:17;;;;;;;14.53;13.03;;;10.40;99.80;;;;;;5070838;28;20623;-58
2024/03/22 03:12:43;;;;;;;14.90;13.00;;;10.40;99.70;;;;;;5070577;28;20295;-58
2024/03/22 03:15:09;;;;;;;18.13;13.80;;;10.30;99.70;;;;;;5068787;28;20200;-58
2024/03/22 03:17:35;;;;;;;21.30;14.40;;;10.30;99.70;;;;;;5070822;28;20533;-58
2024/03/22 03:20:01;;;;;;;14.87;13.30;;;10.30;99.80;;;;;;5067606;28;20203;-58
2024/03/22 03:22:27;;;;;;;24.70;12.03;;;10.40;99.90;;;;;;5068206;28;20216;-58
2024/03/22 03:24:53;;;;;;;50.83;10.90;;;10.40;99.80;;;;;;5068665;28;20202;-59
2024/03/22 03:27:20;;;;;;;11.70;10.50;;;10.40;99.70;;;;;;5068919;28;20670;-58
2024/03/22 03:29:46;;;;;;;22.87;13.30;;;10.30;99.60;;;;;;5068652;28;20589;-58
2024/03/22 03:32:12;;;;;;;36.27;14.77;;;10.30;99.60;;;;;;5068496;28;20194;-58
2024/03/22 03:34:38;;;;;;;22.80;14.50;;;10.30;99.60;;;;;;5057808;28;20200;-58
2024/03/22 03:37:04;;;;;;;26.30;14.03;;;10.20;99.60;;;;;;5053498;28;20205;-58
2024/03/22 03:39:30;;;;;;;21.70;13.83;;;10.20;99.60;;;;;;5068411;28;20222;-58
2024/03/22 03:41:56;;;;;;;47.70;13.93;;;10.20;99.70;;;;;;5072324;28;20217;-58
2024/03/22 03:44:22;;;;;;;27.43;14.23;;;10.20;99.70;;;;;;5070251;28;20210;-58
2024/03/22 03:46:49;;;;;;;30.17;13.63;;;10.20;99.70;;;;;;5056788;28;20254;-58
2024/03/22 03:49:15;;;;;;;69.03;15.90;;;10.20;99.70;;;;;;5050622;28;20203;-58
2024/03/22 03:51:41;;;;;;;99.07;15.93;;;10.20;99.80;;;;;;5070663;28;20683;-58
2024/03/22 03:54:07;;;;;;;38.60;15.27;;;10.20;99.70;;;;;;5043680;28;20201;-58
2024/03/22 03:56:33;;;;;;;48.53;15.47;;;10.10;99.80;;;;;;5071190;28;20269;-58
2024/03/22 03:58:59;;;;;;;30.03;13.77;;;10.10;99.80;;;;;;5069949;28;20203;-58
2024/03/22 04:01:25;;;;;;;15.00;13.60;;;10.10;99.90;;;;;;5072001;28;20317;-58
2024/03/22 04:03:51;;;;;;;17.80;14.30;;;10.10;99.90;;;;;;5069938;28;20528;-58
2024/03/22 04:06:18;;;;;;;18.30;13.70;;;10.10;99.90;;;;;;5065646;28;20209;-58
2024/03/22 04:08:44;;;;;;;14.20;12.63;;;10.10;99.90;;;;;;5074843;28;20221;-58
2024/03/22 04:11:11;;;;;;;15.60;13.93;;;10.00;99.80;;;;;;5074054;28;20257;-58
2024/03/22 04:13:37;;;;;;;64.87;19.67;;;10.00;99.80;;;;;;5073376;28;20201;-58
2024/03/22 04:16:04;;;;;;;54.37;19.37;;;10.00;99.70;;;;;;5044350;28;20205;-58
2024/03/22 04:18:31;;;;;;;71.73;19.17;;;10.00;99.80;;;;;;5073311;28;20206;-58
2024/03/22 04:20:59;;;;;;;36.07;17.47;;;10.10;99.90;;;;;;5055545;28;20236;-58
2024/03/22 04:23:25;;;;;;;46.40;16.53;;;10.10;99.90;;;;;;5040170;28;20205;-58
2024/03/22 04:26:02;;;;;;;32.27;17.57;;;10.10;99.90;;;;;;5065154;28;20307;-58
2024/03/22 04:28:29;;;;;;;20.03;17.60;;;10.10;99.90;;;;;;5073558;28;20633;-58
2024/03/22 04:31:14;;;;;;;89.40;17.53;;;10.10;99.90;;;;;;5072155;28;20190;-58
2024/03/22 04:33:40;;;;;;;300.97;21.10;;;10.00;99.90;;;;;;5071481;28;20204;-58
2024/03/22 04:36:09;;;;;;;209.13;19.97;;;10.00;99.90;;;;;;5072129;28;20200;-58
2024/03/22 04:38:35;;;;;;;21.53;16.33;;;10.00;99.90;;;;;;5071976;28;20259;-58
2024/03/22 04:41:01;;;;;;;18.67;16.47;;;9.90;99.90;;;;;;5071059;28;20202;-58
2024/03/22 04:43:28;;;;;;;26.80;18.60;;;9.90;99.90;;;;;;5067547;28;20200;-58
2024/03/22 04:45:54;;;;;;;23.13;18.03;;;10.00;99.90;;;;;;5071415;28;20218;-58
2024/03/22 04:48:22;;;;;;;23.13;17.33;;;9.90;99.90;;;;;;5066597;28;20201;-58
2024/03/22 04:50:50;;;;;;;19.97;17.03;;;10.00;99.90;;;;;;5070078;28;20586;-58
2024/03/22 04:53:17;;;;;;;20.40;18.20;;;10.00;99.90;;;;;;5068762;28;20206;-58
2024/03/22 04:55:47;;;;;;;24.13;16.87;;;10.00;99.90;;;;;;5067216;28;20205;-58
2024/03/22 04:58:18;;;;;;;20.10;16.87;;;9.90;99.90;;;;;;5068552;28;20250;-58
2024/03/22 05:00:45;;;;;;;22.20;18.90;;;9.90;99.90;;;;;;5069845;28;20246;-58
2024/03/22 05:03:12;;;;;;;22.33;17.57;;;9.90;99.90;;;;;;5072169;28;20645;-58
2024/03/22 05:05:39;;;;;;;20.03;17.93;;;9.90;99.90;;;;;;5071983;28;20202;-59
2024/03/22 05:08:06;;;;;;;19.40;17.27;;;9.80;99.90;;;;;;5069974;28;20214;-58
2024/03/22 05:10:33;;;;;;;21.10;17.70;;;9.80;99.90;;;;;;5070211;28;20195;-58
2024/03/22 05:12:59;;;;;;;21.87;18.47;;;9.70;99.80;;;;;;5072186;28;20219;-58
2024/03/22 05:15:26;;;;;;;20.50;17.90;;;9.70;99.80;;;;;;5072383;28;20205;-58
2024/03/22 05:17:53;;;;;;;23.60;18.03;;;9.60;99.80;;;;;;5070697;28;20633;-58
2024/03/22 05:20:20;;;;;;;35.60;19.23;;;9.60;99.80;;;;;;5072570;28;20199;-58
2024/03/22 05:22:47;;;;;;;57.27;20.30;;;9.50;99.90;;;;;;5072701;28;20200;-58
2024/03/22 05:25:15;;;;;;;29.50;20.27;;;9.50;99.90;;;;;;5072666;28;20200;-58
2024/03/22 05:27:42;;;;;;;46.83;21.70;;;9.50;99.90;;;;;;5068945;28;20220;-58
2024/03/22 05:30:09;;;;;;;85.70;22.60;;;9.50;99.90;;;;;;5073001;28;20570;-58
2024/03/22 05:32:35;;;;;;;69.13;22.47;;;9.50;99.90;;;;;;5064508;28;20227;-58
2024/03/22 05:35:02;;;;;;;95.13;23.13;;;9.50;99.90;;;;;;5068996;28;20200;-58
2024/03/22 05:37:28;;;;;;;43.50;22.33;;;9.50;99.90;;;;;;5070756;28;20205;-58
2024/03/22 05:39:55;;;;;;;50.97;22.03;;;9.60;99.90;;;;;;5070383;28;20217;-58
2024/03/22 05:42:21;;;;;;;85.53;21.60;;;9.60;99.90;;;;;;5070337;28;20193;-58
2024/03/22 05:44:48;;;;;;;67.37;23.37;;;9.70;99.90;;;;;;5070762;28;20216;-58
2024/03/22 05:47:14;;;;;;;45.93;20.00;;;9.70;99.90;;;;;;5073677;28;20243;-58
2024/03/22 05:49:40;;;;;;;63.33;20.70;;;9.80;99.90;;;;;;5069727;28;20197;-58
2024/03/22 05:52:06;;;;;;;52.00;20.20;;;9.80;99.90;;;;;;5069290;28;20201;-58
2024/03/22 05:54:33;;;;;;;46.40;19.00;;;9.80;99.90;;;;;;5070646;28;20620;-58
2024/03/22 05:57:00;;;;;;;50.63;20.93;;;9.90;99.90;;;;;;5071920;28;20209;-59
2024/03/22 05:59:27;;;;;;;70.57;22.03;;;9.90;99.90;;;;;;5067618;28;20194;-58
2024/03/22 06:01:53;;;;;;;62.23;21.17;;;10.00;99.90;;;;;;5070775;28;20268;-58
2024/03/22 06:04:19;;;;;;;69.23;22.53;;;10.00;99.90;;;;;;5070341;28;20191;-58
2024/03/22 06:06:47;;;;;;;63.53;22.33;;;10.10;99.90;;;;;;5069328;28;20937;-59
2024/03/22 06:09:19;;;;;;;148.50;25.70;;;10.20;99.90;;;;;;5068930;28;20634;-58
2024/03/22 06:11:45;;;;;;;145.10;23.63;;;10.30;99.90;;;;;;5070051;28;20246;-58
2024/03/22 06:14:11;;;;;;;83.30;20.63;;;10.30;99.90;;;;;;5071265;28;20213;-59
2024/03/22 06:16:37;;;;;;;52.57;20.87;;;10.40;99.90;;;;;;5067376;28;20203;-58
2024/03/22 06:19:03;;;;;;;45.53;19.73;;;10.50;99.90;;;;;;5069992;28;20205;-58
2024/03/22 06:21:29;;;;;;;47.70;20.70;;;10.50;99.90;;;;;;5069615;28;20209;-59
2024/03/22 06:23:55;;;;;;;57.23;20.50;;;10.50;99.90;;;;;;5071704;28;20266;-59
2024/03/22 06:26:21;;;;;;;93.57;20.23;;;10.40;99.90;;;;;;5070653;28;20236;-59
2024/03/22 06:28:48;;;;;;;91.57;21.20;;;10.40;99.90;;;;;;5069538;28;20673;-59
2024/03/22 06:31:14;;;;;;;66.70;22.63;;;10.30;99.90;;;;;;5067648;28;20197;-59
2024/03/22 06:33:40;;;;;;;51.17;21.70;;;10.30;99.90;;;;;;5069682;28;20196;-59
2024/03/22 06:36:06;;;;;;;76.93;21.37;;;10.30;99.90;;;;;;5086483;28;20197;-59
2024/03/22 06:38:33;;;;;;;181.63;22.63;;;10.40;99.90;;;;;;5073580;28;20253;-60
2024/03/22 06:40:59;;;;;;;78.07;21.50;;;10.40;99.90;;;;;;5069017;28;20645;-59
2024/03/22 06:43:25;;;;;;;91.87;19.93;;;10.50;99.90;;;;;;5067245;28;20206;-59
2024/03/22 06:45:51;;;;;;;69.30;20.73;;;10.50;99.90;;;;;;5070644;28;20287;-59
2024/03/22 06:48:18;;;;;;;55.43;20.30;;;10.60;99.90;;;;;;5069607;28;20202;-59
2024/03/22 06:50:44;;;;;;;72.67;19.67;;;10.60;99.90;;;;;;5070900;28;20208;-59
2024/03/22 06:53:10;;;;;;;112.97;22.67;;;10.70;99.90;;;;;;5070423;28;20658;-59
2024/03/22 06:55:36;;;;;;;80.80;21.10;;;10.70;99.90;;;;;;5068569;28;20649;-59
2024/03/22 06:58:02;;;;;;;155.50;22.33;;;10.80;99.90;;;;;;5070141;28;20626;-59
2024/03/22 07:00:29;;;;;;;168.40;22.23;;;10.90;99.90;;;;;;5068592;28;20225;-59
2024/03/22 07:03:00;;;;;;;163.53;23.60;;;11.00;99.90;;;;;;5070592;28;20211;-59
2024/03/22 07:05:26;;;;;;;140.30;25.23;;;11.00;99.90;;;;;;5069547;28;20191;-59
2024/03/22 07:07:55;;;;;;;95.10;23.37;;;11.10;99.90;;;;;;5067627;28;20219;-59
2024/03/22 07:10:23;;;;;;;198.43;24.50;;;11.20;99.90;;;;;;5069277;28;20198;-59
2024/03/22 07:12:49;;;;;;;127.97;20.97;;;11.30;99.90;;;;;;5073288;28;20206;-59
2024/03/22 07:15:15;;;;;;;105.20;22.80;;;11.40;99.90;;;;;;5069685;28;20199;-59
2024/03/22 07:17:41;;;;;;;68.43;21.80;;;11.50;99.90;;;;;;5070397;28;20194;-59
2024/03/22 07:20:08;;;;;;;36.00;21.97;;;11.60;99.90;;;;;;5070130;28;20206;-59
2024/03/22 07:22:34;;;;;;;65.60;22.90;;;11.70;99.90;;;;;;5068362;28;20201;-59
2024/03/22 07:25:00;;;;;;;84.17;23.60;;;11.80;99.90;;;;;;5070777;28;20572;-59
2024/03/22 07:27:29;;;;;;;93.53;22.43;;;11.90;99.90;;;;;;5070218;28;20224;-59
2024/03/22 07:29:55;;;;;;;63.07;23.57;;;12.10;99.90;;;;;;5063347;28;20199;-59
2024/03/22 07:32:22;;;;;;;58.60;23.93;;;12.20;99.90;;;;;;5069609;28;20244;-59
2024/03/22 07:34:48;;;;;;;75.23;24.73;;;12.30;99.90;;;;;;5069326;28;20255;-59
2024/03/22 07:37:14;;;;;;;71.27;22.63;;;12.40;99.90;;;;;;5070562;28;20206;-59
2024/03/22 07:39:40;;;;;;;82.83;23.90;;;12.50;99.90;;;;;;5067000;28;20268;-59
2024/03/22 07:42:06;;;;;;;62.33;23.73;;;12.60;99.90;;;;;;5072330;28;20633;-59
2024/03/22 07:44:33;;;;;;;67.90;27.67;;;12.70;99.90;;;;;;5069266;28;20198;-59
2024/03/22 07:46:59;;;;;;;85.83;29.93;;;12.80;99.90;;;;;;5071695;28;20315;-59
2024/03/22 07:49:25;;;;;;;247.17;132.13;;;12.90;99.90;;;;;;5070524;28;20204;-59
2024/03/22 07:51:53;;;;;;;89.10;47.80;;;13.00;99.90;;;;;;5073792;28;20213;-59
2024/03/22 07:54:20;;;;;;;47.03;30.73;;;13.10;99.90;;;;;;5072595;28;20196;-59
2024/03/22 07:56:46;;;;;;;57.83;27.87;;;13.20;99.90;;;;;;5071711;28;20206;-59
2024/03/22 07:59:13;;;;;;;51.23;29.40;;;13.30;99.90;;;;;;5072541;28;20205;-59
2024/03/22 08:01:39;;;;;;;44.13;30.53;;;13.40;99.90;;;;;;5073381;28;20236;-59
2024/03/22 08:04:06;;;;;;;46.57;31.63;;;13.60;99.90;;;;;;5088843;28;20205;-59
2024/03/22 08:06:32;;;;;;;51.60;34.67;;;13.70;99.90;;;;;;5072466;28;20206;-59
2024/03/22 08:08:58;;;;;;;51.33;33.87;;;13.90;99.90;;;;;;5072752;28;20213;-59
2024/03/22 08:11:24;;;;;;;50.13;33.70;;;14.00;99.90;;;;;;5070672;28;20643;-59
2024/03/22 08:13:50;;;;;;;54.10;34.20;;;14.20;99.90;;;;;;5074175;28;20213;-59
2024/03/22 08:16:16;;;;;;;56.87;34.93;;;14.30;99.90;;;;;;5071079;28;20186;-59
2024/03/22 08:18:42;;;;;;;58.23;36.20;;;14.30;99.90;;;;;;5072022;28;20210;-59
2024/03/22 08:21:09;;;;;;;55.77;37.33;;;14.40;99.90;;;;;;5071094;28;20293;-59
2024/03/22 08:23:35;;;;;;;57.37;39.07;;;14.50;99.90;;;;;;5073995;28;20210;-58
2024/03/22 08:26:01;;;;;;;65.60;41.20;;;14.70;99.90;;;;;;5069157;28;20198;-59
2024/03/22 08:28:27;;;;;;;61.33;39.63;;;14.80;99.90;;;;;;5071056;28;20646;-59
2024/03/22 08:30:53;;;;;;;60.30;39.63;;;15.00;99.90;;;;;;5073544;28;20193;-59
2024/03/22 08:33:19;;;;;;;57.27;39.27;;;15.20;99.90;;;;;;5073117;28;20210;-59
2024/03/22 08:35:45;;;;;;;59.37;39.00;;;15.50;99.90;;;;;;5073327;28;20201;-59
2024/03/22 08:38:14;;;;;;;56.17;38.37;;;15.70;99.90;;;;;;5072206;28;20194;-59
2024/03/22 08:40:40;;;;;;;57.63;39.47;;;16.00;99.90;;;;;;5069920;28;20627;-58
2024/03/22 08:43:07;;;;;;;55.47;36.63;;;16.20;99.90;;;;;;5071074;28;20205;-59
2024/03/22 08:45:34;;;;;;;53.13;37.97;;;16.50;99.90;;;;;;5070913;28;20192;-59
2024/03/22 08:48:00;;;;;;;57.80;39.00;;;16.70;99.90;;;;;;5068306;28;20216;-59
2024/03/22 08:50:26;;;;;;;63.33;42.57;;;17.00;99.40;;;;;;5069207;28;20210;-59
2024/03/22 08:52:52;;;;;;;66.93;45.23;;;17.10;98.90;;;;;;5072190;28;20195;-59
2024/03/22 08:55:19;;;;;;;70.00;48.53;;;17.20;98.80;;;;;;5070121;28;20201;-59
2024/03/22 08:57:45;;;;;;;70.90;50.10;;;17.40;98.60;;;;;;5069948;28;20221;-59
2024/03/22 09:00:12;;;;;;;76.80;50.07;;;17.50;98.10;;;;;;5072771;28;20239;-59
2024/03/22 09:02:38;;;;;;;68.73;48.70;;;17.70;97.60;;;;;;5070689;28;20302;-59
2024/03/22 09:05:05;;;;;;;71.20;51.00;;;17.80;97.20;;;;;;5072915;28;20555;-59
2024/03/22 09:07:32;;;;;;;73.97;52.07;;;17.80;96.80;;;;;;5072792;28;20213;-59
2024/03/22 09:09:58;;;;;;;66.73;48.67;;;17.90;96.50;;;;;;5072990;28;20699;-59
2024/03/22 09:12:24;;;;;;;72.23;49.53;;;18.10;96.40;;;;;;5072939;28;20197;-59
2024/03/22 09:14:50;;;;;;;74.23;51.40;;;18.20;95.90;;;;;;5080702;28;20202;-59
2024/03/22 09:17:16;;;;;;;68.60;49.80;;;18.20;95.70;;;;;;5070409;28;20207;-59
2024/03/22 09:19:42;;;;;;;78.50;54.60;;;18.40;95.30;;;;;;5072201;28;20212;-58
2024/03/22 09:22:08;;;;;;;75.57;54.60;;;18.50;95.00;;;;;;5071936;28;20210;-60
2024/03/22 09:24:35;;;;;;;75.10;53.17;;;18.50;93.80;;;;;;5070843;28;20216;-60
2024/03/22 09:27:04;;;;;;;67.13;47.87;;;18.60;93.40;;;;;;5072633;28;20540;-59
2024/03/22 09:29:30;;;;;;;70.17;51.37;;;18.60;93.30;;;;;;5084519;22;20251;-82
2024/03/22 09:31:56;;;;;;;68.43;49.27;;;18.70;93.10;;;;;;5079945;28;20189;-82
2024/03/22 09:34:23;;;;;;;68.50;49.67;;;18.80;93.60;;;;;;5074790;28;20209;-82
2024/03/22 09:36:49;;;;;;;70.67;48.33;;;18.90;93.50;;;;;;5044814;28;20212;-82
2024/03/22 09:39:15;;;;;;;52.97;41.07;;;19.00;93.40;;;;;;5057929;28;20351;-83
2024/03/22 09:41:43;;;;;;;56.47;41.93;;;19.10;92.50;;;;;;5077911;28;20326;-80
2024/03/22 09:44:14;;;;;;;53.90;41.63;;;19.20;91.90;;;;;;5060883;28;20271;-81
2024/03/22 09:46:44;;;;;;;58.97;44.03;;;19.30;91.60;;;;;;5077485;28;20217;-81
2024/03/22 09:49:11;;;;;;;57.37;41.77;;;19.50;91.40;;;;;;5062982;28;20204;-82
2024/03/22 09:51:38;;;;;;;62.67;45.93;;;19.60;91.30;;;;;;5061509;28;20215;-83
2024/03/22 09:54:05;;;;;;;61.07;44.50;;;19.70;90.50;;;;;;5052462;28;20273;-81
2024/03/22 09:56:33;;;;;;;57.67;42.23;;;19.80;90.60;;;;;;5061885;28;20201;-81
2024/03/22 09:59:01;;;;;;;56.30;43.60;;;19.80;90.20;;;;;;5036761;28;20297;-80
2024/03/22 10:01:27;;;;;;;58.00;41.23;;;19.90;89.80;;;;;;5066119;28;20578;-80
2024/03/22 10:03:57;;;;;;;53.73;39.80;;;19.90;89.60;;;;;;5046925;28;20345;-84
2024/03/22 10:06:25;;;;;;;47.37;35.40;;;20.00;89.30;;;;;;5061332;28;20275;-79
2024/03/22 10:08:51;;;;;;;51.77;37.37;;;20.10;87.80;;;;;;5076610;28;20300;-80
2024/03/22 10:11:31;;;;;;;54.63;38.90;;;20.20;87.10;;;;;;5052645;28;20635;-84
2024/03/22 10:14:00;;;;;;;50.97;39.90;;;20.40;86.80;;;;;;5074907;28;20217;-81
2024/03/22 10:16:26;;;;;;;53.77;40.40;;;20.40;86.50;;;;;;5033145;28;20244;-81
2024/03/22 10:18:55;;;;;;;52.80;40.33;;;20.40;85.80;;;;;;5058510;28;20243;-82
2024/03/22 10:21:22;;;;;;;51.33;39.73;;;20.50;86.10;;;;;;5053686;28;20618;-80
2024/03/22 10:23:53;;;;;;;53.93;40.17;;;20.50;86.50;;;;;;5068484;28;20221;-81
2024/03/22 10:26:19;;;;;;;50.27;38.13;;;20.70;86.40;;;;;;5061057;28;20271;-81
2024/03/22 10:28:46;;;;;;;48.63;36.70;;;20.80;86.20;;;;;;5061309;28;20205;-83
2024/03/22 10:31:20;;;;;;;47.70;37.50;;;20.80;85.80;;;;;;5075573;28;20293;-83
2024/03/22 10:33:52;;;;;;;42.90;33.03;;;20.90;81.90;;;;;;5059570;28;20657;-82
2024/03/22 10:36:20;;;;;;;48.73;34.63;;;20.90;82.70;;;;;;5060224;28;20636;-80
2024/03/22 10:38:51;;;;;;;43.63;35.17;;;20.90;83.70;;;;;;5058501;28;20228;-82
2024/03/22 10:41:17;;;;;;;51.30;37.43;;;21.00;84.00;;;;;;5048601;28;20284;-80
2024/03/22 10:43:44;;;;;;;52.60;36.50;;;21.20;82.10;;;;;;5060535;28;20225;-84
2024/03/22 10:46:12;;;;;;;50.37;37.83;;;21.20;82.40;;;;;;5048153;28;20233;-81
2024/03/22 10:48:41;;;;;;;43.23;34.70;;;21.40;83.10;;;;;;5044445;28;20206;-80
2024/03/22 10:51:09;;;;;;;47.47;34.50;;;21.50;81.60;;;;;;5044812;28;20198;-81
2024/03/22 10:53:36;;;;;;;40.40;31.77;;;21.50;80.40;;;;;;5054683;28;20229;-80
2024/03/22 10:56:04;;;;;;;44.53;32.13;;;21.50;80.50;;;;;;5077714;28;20225;-81
2024/03/22 10:58:31;;;;;;;45.33;32.47;;;21.60;80.60;;;;;;5056698;28;20662;-81
2024/03/22 11:00:57;;;;;;;44.10;32.97;;;21.70;80.30;;;;;;5060837;28;20623;-79
2024/03/22 11:03:28;;;;;;;42.73;32.33;;;21.90;79.80;;;;;;5078015;28;20224;-81
2024/03/22 11:05:58;;;;;;;41.10;30.33;;;22.00;79.40;;;;;;5072358;28;20228;-82
2024/03/22 11:08:26;;;;;;;37.40;27.60;;;22.10;78.40;;;;;;5077249;28;20660;-81
2024/03/22 11:10:54;;;;;;;31.33;24.30;;;22.20;78.10;;;;;;5074729;28;20525;-82
2024/03/22 11:13:21;;;;;;;26.30;19.83;;;22.30;77.30;;;;;;5040532;28;20212;-81
2024/03/22 11:15:49;;;;;;;21.70;17.10;;;22.30;75.50;;;;;;5064257;28;20565;-80
2024/03/22 11:18:17;;;;;;;26.70;20.97;;;22.40;74.10;;;;;;5081094;28;20292;-80
2024/03/22 11:20:47;;;;;;;29.70;23.13;;;22.50;73.30;;;;;;5080436;28;20206;-81
2024/03/22 11:23:14;;;;;;;27.57;22.33;;;22.60;72.80;;;;;;5064206;28;20201;-80
2024/03/22 11:25:40;;;;;;;25.77;21.13;;;22.70;72.00;;;;;;5048495;28;20292;-80
2024/03/22 11:28:06;;;;;;;24.10;18.43;;;22.70;71.90;;;;;;5080362;28;20304;-80
2024/03/22 11:30:34;;;;;;;17.20;14.27;;;22.70;69.90;;;;;;5086531;28;20264;-82
2024/03/22 11:33:08;;;;;;;21.17;14.73;;;22.70;69.30;;;;;;5081490;28;20212;-80
2024/03/22 11:35:34;;;;;;;17.90;14.33;;;22.70;67.40;;;;;;5080261;28;20543;-81
2024/03/22 11:38:05;;;;;;;21.33;16.10;;;22.70;66.60;;;;;;5088146;28;20220;-80
2024/03/22 11:40:33;;;;;;;23.17;16.63;;;22.70;67.00;;;;;;5092105;28;20856;-81
2024/03/22 11:43:01;;;;;;;21.03;16.47;;;22.70;66.80;;;;;;5064799;28;20216;-80
2024/03/22 11:45:28;;;;;;;19.13;14.57;;;22.70;67.20;;;;;;5080766;28;20291;-81
2024/03/22 11:47:54;;;;;;;19.97;14.70;;;22.70;63.60;;;;;;5078594;28;20232;-80
2024/03/22 11:50:21;;;;;;;18.07;14.37;;;22.60;63.90;;;;;;5086432;28;20546;-83
2024/03/22 11:52:47;;;;;;;20.30;16.17;;;22.60;64.80;;;;;;5083689;28;20287;-80
2024/03/22 11:55:15;;;;;;;17.47;13.30;;;22.60;65.60;;;;;;5104798;28;20628;-80
2024/03/22 11:57:41;;;;;;;14.40;11.67;;;22.60;64.40;;;;;;5104841;28;20236;-81
2024/03/22 12:00:18;;;;;;;16.73;13.20;;;22.70;63.50;;;;;;5109107;28;20224;-81
2024/03/22 12:02:45;;;;;;;16.00;12.80;;;22.70;62.50;;;;;;5090214;27;20215;-81
2024/03/22 12:05:12;;;;;;;14.17;11.53;;;22.60;63.30;;;;;;5084151;27;20210;-81
2024/03/22 12:07:40;;;;;;;13.67;10.67;;;22.70;63.00;;;;;;5094680;28;20728;-80
2024/03/22 12:10:07;;;;;;;13.40;10.83;;;22.70;62.30;;;;;;5091669;28;20189;-81
2024/03/22 12:12:33;;;;;;;12.33;10.90;;;22.70;62.90;;;;;;5103366;28;20624;-80
2024/03/22 12:14:59;;;;;;;10.90;9.57;;;22.70;62.50;;;;;;5118256;27;20207;-81
2024/03/22 12:17:27;;;;;;;13.03;10.87;;;22.80;62.00;;;;;;5087035;28;20229;-82
2024/03/22 12:19:55;;;;;;;11.67;9.47;;;22.80;60.10;;;;;;5089979;28;20220;-80
2024/03/22 12:22:25;;;;;;;14.00;9.63;;;22.80;60.00;;;;;;5058411;28;20221;-80
2024/03/22 12:24:52;;;;;;;13.50;10.20;;;22.80;58.60;;;;;;5076529;28;20215;-80
2024/03/22 12:27:18;;;;;;;10.90;8.80;;;22.80;59.30;;;;;;5083550;28;20216;-80